Front Royal, VA (22630)

2:13 AM EDT on April 27, 2017 (GMT -0400)
Randolph-Macon Academy | | Change Station

Elev 643 ft 38.92 °N, 78.20 °W | Updated 1 minute ago

Clear
Clear
62.4 °F
Feels Like 62.4 °F
N
4.9
Wind Variable Wind from ENE
Gusts 9.0 mph

Today
High -- | Low -- °F
--% Chance of Precip.
Yesterday
High -- | Low -- °F
Precip. -- in
Pressure 29.80 in
Visibility 4.0 miles
Clouds Clear
Dew Point 59 °F
Humidity 90%
Rainfall 0.00 in
Snow Depth Not available.
6:19 AM 8:01 PM
New Moon, 1% visible
METAR KOKV 270555Z AUTO 00000KT 4SM BR CLR 12/12 A2980 RMK AO2
Pressure 29.80 in
Visibility 4.0 miles
Clouds Clear
Dew Point 59 °F
Humidity 90%
Rainfall 0.00 in
Snow Depth Not available.
6:19 AM 8:01 PM
New Moon, 1% visible
METAR KOKV 270555Z AUTO 00000KT 4SM BR CLR 12/12 A2980 RMK AO2

Get Severe Weather Alerts

Thanks for signing up!

Be on the lookout for a verification email in your inbox.

You'll start receiving the daily forecast at 8 AM.

×

10-Day Weather Forecast

Almanac

Astronomy

Apr. 27, 2017 Rise Set
Actual Time
Civil Twilight
Nautical Twilight
Astronomical Twilight
Moon
Length of Visible Light
Length of Day
Tomorrow will be .
, % of the Moon is Illuminated

Today's Extremes

State Highs State Lows

Community

WunderPhotos

WunderBlog® & News

Nearby

Air Quality

  Air Quality AQ Index Pollutant
Not available.

Snow Depth

Station Depth Elevation

Earthquake Activity

City Distance Mag. Time & Date
Minimum magnitude displayed is 2.5.

Coastal Water Temperatures

Place Temperature

Stations

Nearby Weather Stations

Station Location Temp. Windchill Dew Point Humidity Wind Precip. Elev Updated Type
                   

Watches & Warnings

There are currently no watches in effect.